Time;durP1;ratioP1;P1;durP2;ratioP2;P2;SDS_P1;SDS_P2;PMS_P1;PMS_P2;Temp;Humidity;BMP_temperature;BMP_pressure;BME280_temperature;BME280_humidity;BME280_pressure;Samples;Min_cycle;Max_cycle;Signal;HPM_P1;HPM_P2
2021/06/16 00:00:40;;;;;;;7.88;2.70;;;15.10;99.90;;;;;;5029041;28;20719;-91
2021/06/16 00:03:06;;;;;;;6.50;2.45;;;15.10;99.90;;;;;;5029501;28;20186;-89
2021/06/16 00:05:32;;;;;;;4.00;2.33;;;15.10;99.90;;;;;;5037390;28;21169;-89
2021/06/16 00:07:58;;;;;;;4.35;2.40;;;15.10;99.90;;;;;;5029441;28;20194;-91
2021/06/16 00:10:28;;;;;;;3.15;2.05;;;15.10;99.90;;;;;;5030239;28;20210;-89
2021/06/16 00:12:55;;;;;;;4.95;2.10;;;15.10;99.90;;;;;;5026120;28;20226;-89
2021/06/16 00:15:26;;;;;;;5.40;2.22;;;15.10;99.90;;;;;;5029263;28;20190;-88
2021/06/16 00:17:51;;;;;;;5.75;2.10;;;15.00;99.90;;;;;;5032934;28;20328;-89
2021/06/16 00:20:17;;;;;;;5.43;2.15;;;15.00;99.90;;;;;;5028276;28;20290;-88
2021/06/16 00:22:44;;;;;;;8.05;2.70;;;15.00;99.90;;;;;;5033709;28;20185;-91
2021/06/16 00:25:10;;;;;;;6.22;2.53;;;14.90;99.90;;;;;;5037403;28;20252;-90
2021/06/16 00:27:37;;;;;;;6.88;2.58;;;14.80;99.90;;;;;;5029370;28;20182;-91
2021/06/16 00:30:05;;;;;;;6.30;2.35;;;14.80;99.90;;;;;;5029649;28;20206;-89
2021/06/16 00:32:30;;;;;;;6.28;2.53;;;14.70;99.90;;;;;;5013962;28;20232;-89
2021/06/16 00:34:56;;;;;;;6.22;2.40;;;14.70;99.90;;;;;;5017514;28;20257;-89
2021/06/16 00:37:22;;;;;;;5.55;2.70;;;14.60;99.90;;;;;;5019079;28;20550;-90
2021/06/16 00:39:47;;;;;;;4.72;2.28;;;14.60;99.90;;;;;;5032160;28;20235;-90
2021/06/16 00:42:13;;;;;;;6.07;2.42;;;14.50;99.90;;;;;;5040606;28;20190;-91
2021/06/16 00:44:39;;;;;;;6.22;2.40;;;14.50;99.90;;;;;;5033593;28;20325;-90
2021/06/16 00:47:04;;;;;;;7.72;2.65;;;14.50;99.90;;;;;;5032180;28;20229;-90
2021/06/16 00:49:30;;;;;;;6.20;2.70;;;14.40;99.90;;;;;;5030295;28;20234;-89
2021/06/16 00:51:56;;;;;;;4.78;2.03;;;14.40;99.90;;;;;;5035886;28;20255;-88
2021/06/16 00:54:22;;;;;;;5.53;2.75;;;14.30;99.90;;;;;;5037355;28;20182;-89
2021/06/16 00:56:47;;;;;;;6.97;2.45;;;14.40;99.90;;;;;;5028564;28;20190;-88
2021/06/16 00:59:13;;;;;;;3.42;2.10;;;14.30;99.90;;;;;;5027703;28;20202;-91
2021/06/16 01:01:45;;;;;;;5.95;2.40;;;14.30;99.90;;;;;;5033270;28;20190;-89
2021/06/16 01:04:24;;;;;;;5.50;2.13;;;14.20;99.90;;;;;;5036373;28;20182;-89
2021/06/16 01:07:01;;;;;;;6.13;2.20;;;14.20;99.90;;;;;;5028243;28;20182;-91
2021/06/16 01:09:47;;;;;;;7.20;2.55;;;14.20;99.90;;;;;;5024628;28;20267;-89
2021/06/16 01:12:23;;;;;;;5.45;2.10;;;14.20;99.90;;;;;;5025228;28;20209;-88
2021/06/16 01:15:09;;;;;;;4.03;2.10;;;14.10;99.90;;;;;;5018749;28;20179;-90
2021/06/16 01:20:45;;;;;;;5.50;2.35;;;14.10;99.90;;;;;;2240854;23;20525;-87
2021/06/16 01:23:37;;;;;;;4.90;2.20;;;14.10;99.90;;;;;;4998210;28;20293;-91
2021/06/16 01:26:11;;;;;;;3.08;1.75;;;14.20;99.90;;;;;;5009131;28;20202;-92
2021/06/16 01:28:44;;;;;;;5.53;2.17;;;14.20;99.90;;;;;;4991691;28;20528;-90
2021/06/16 01:31:16;;;;;;;8.55;2.33;;;14.10;99.90;;;;;;4974868;28;20226;-91
2021/06/16 01:33:44;;;;;;;5.57;2.30;;;14.10;99.90;;;;;;4980198;28;20284;-92
2021/06/16 01:36:11;;;;;;;7.70;2.30;;;14.20;99.90;;;;;;4983746;28;20234;-89
2021/06/16 01:38:37;;;;;;;5.32;1.95;;;14.20;99.90;;;;;;5012650;28;20282;-89
2021/06/16 01:41:05;;;;;;;4.43;2.35;;;14.10;99.90;;;;;;4987229;28;20325;-90
2021/06/16 01:43:31;;;;;;;8.82;2.28;;;14.10;99.90;;;;;;4998019;28;20403;-91
2021/06/16 01:46:00;;;;;;;5.93;2.15;;;14.00;99.90;;;;;;4994026;28;20262;-89
2021/06/16 01:48:28;;;;;;;4.53;2.30;;;13.90;99.90;;;;;;4983124;28;20218;-90
2021/06/16 01:50:54;;;;;;;3.83;2.00;;;13.90;99.90;;;;;;4966365;28;20290;-91
2021/06/16 01:53:21;;;;;;;6.00;2.20;;;13.90;99.90;;;;;;4999058;28;20198;-93
2021/06/16 01:55:51;;;;;;;4.65;2.30;;;13.90;99.90;;;;;;4982696;28;20245;-92
2021/06/16 01:58:18;;;;;;;5.57;2.47;;;13.80;99.90;;;;;;4974050;28;20284;-89
2021/06/16 02:00:45;;;;;;;9.38;2.90;;;13.70;99.90;;;;;;4960983;28;20216;-90
2021/06/16 02:03:12;;;;;;;4.35;2.20;;;13.60;99.90;;;;;;4969797;28;20199;-89
2021/06/16 02:05:38;;;;;;;10.23;2.58;;;13.50;99.90;;;;;;4983396;28;20183;-89
2021/06/16 02:08:13;;;;;;;7.63;2.22;;;13.40;99.90;;;;;;4993021;28;20619;-91
2021/06/16 02:10:48;;;;;;;4.05;2.70;;;13.50;99.90;;;;;;4980756;28;20277;-91
2021/06/16 02:13:17;;;;;;;5.93;2.63;;;13.50;99.90;;;;;;4993966;28;20195;-91
2021/06/16 02:15:51;;;;;;;3.85;2.50;;;13.40;99.90;;;;;;4978015;28;20183;-91
2021/06/16 02:18:20;;;;;;;7.47;2.40;;;13.40;99.90;;;;;;4971078;28;20232;-90
2021/06/16 02:20:46;;;;;;;12.98;2.92;;;13.40;99.90;;;;;;4962599;28;20274;-91
2021/06/16 02:23:13;;;;;;;4.82;2.13;;;13.40;99.90;;;;;;4962352;28;20685;-89
2021/06/16 02:25:39;;;;;;;5.90;2.30;;;13.30;99.90;;;;;;4956697;28;20243;-89
2021/06/16 02:28:04;;;;;;;7.35;2.65;;;13.20;99.90;;;;;;4951458;28;20267;-90
2021/06/16 02:30:30;;;;;;;5.40;2.67;;;13.10;99.90;;;;;;4967372;28;20717;-89
2021/06/16 02:32:56;;;;;;;9.00;2.63;;;13.00;99.90;;;;;;4950269;28;20224;-88
2021/06/16 02:35:22;;;;;;;5.00;2.25;;;13.00;99.90;;;;;;4964244;28;20231;-94
2021/06/16 02:37:53;;;;;;;5.50;2.30;;;13.10;99.90;;;;;;4958201;28;20318;-90
2021/06/16 02:40:20;;;;;;;6.68;2.20;;;13.10;99.90;;;;;;4961882;28;20219;-92
2021/06/16 02:42:49;;;;;;;6.82;2.47;;;13.10;99.90;;;;;;4958211;28;20231;-91
2021/06/16 02:45:17;;;;;;;4.50;2.45;;;13.00;99.90;;;;;;4966557;28;20307;-92
2021/06/16 02:47:49;;;;;;;3.67;1.92;;;13.00;99.90;;;;;;4956589;28;20231;-88
2021/06/16 02:50:26;;;;;;;6.80;2.40;;;13.00;99.90;;;;;;4958585;28;20247;-89
2021/06/16 02:52:53;;;;;;;4.57;2.10;;;13.00;99.90;;;;;;4952735;28;20793;-90
2021/06/16 02:55:23;;;;;;;6.20;2.05;;;12.90;99.90;;;;;;4970442;28;20849;-92
2021/06/16 02:57:51;;;;;;;4.25;2.22;;;12.90;99.90;;;;;;4953426;28;20224;-92
2021/06/16 03:00:18;;;;;;;4.57;2.05;;;12.80;99.90;;;;;;4960723;28;20303;-91
2021/06/16 03:02:46;;;;;;;4.20;2.33;;;12.80;99.90;;;;;;4964607;28;20239;-92
2021/06/16 03:05:15;;;;;;;5.15;2.40;;;12.70;99.90;;;;;;4966939;28;20188;-89
2021/06/16 03:07:42;;;;;;;6.38;2.20;;;12.60;99.90;;;;;;4955117;28;20663;-89
2021/06/16 03:10:10;;;;;;;5.35;2.00;;;12.60;99.90;;;;;;4966340;28;20225;-90
2021/06/16 03:12:36;;;;;;;3.25;2.40;;;12.80;99.90;;;;;;4959718;28;20735;-90
2021/06/16 03:15:04;;;;;;;4.43;1.90;;;12.80;99.90;;;;;;4981574;28;20196;-91
2021/06/16 03:17:30;;;;;;;7.50;2.05;;;12.70;99.90;;;;;;4954891;28;20756;-90
2021/06/16 03:19:57;;;;;;;2.70;1.90;;;12.70;99.90;;;;;;4964876;28;20627;-90
2021/06/16 03:22:24;;;;;;;4.40;2.47;;;12.60;99.90;;;;;;4957357;28;20263;-90
2021/06/16 03:24:51;;;;;;;7.18;1.85;;;12.50;99.90;;;;;;4974198;28;20226;-94
2021/06/16 03:27:22;;;;;;;4.90;2.10;;;12.50;99.90;;;;;;4950329;28;20227;-91
2021/06/16 03:29:52;;;;;;;5.80;1.88;;;12.60;99.90;;;;;;4959909;28;20569;-90
2021/06/16 03:32:19;;;;;;;7.47;2.20;;;12.60;99.90;;;;;;4951721;28;20284;-92
2021/06/16 03:34:45;;;;;;;3.25;2.00;;;12.60;99.90;;;;;;4973413;28;20823;-90
2021/06/16 03:37:12;;;;;;;4.97;2.50;;;12.60;99.90;;;;;;4954883;28;20235;-90
2021/06/16 03:39:39;;;;;;;3.88;1.98;;;12.60;99.90;;;;;;4964224;28;20548;-90
2021/06/16 03:42:06;;;;;;;5.47;2.15;;;12.60;99.90;;;;;;4957441;28;20712;-93
2021/06/16 03:44:34;;;;;;;3.30;2.00;;;12.50;99.90;;;;;;4955333;28;20200;-91
2021/06/16 03:47:02;;;;;;;3.33;2.10;;;12.50;99.90;;;;;;4948220;28;20227;-91
2021/06/16 03:49:29;;;;;;;4.43;2.08;;;12.60;99.90;;;;;;4961047;28;20336;-92
2021/06/16 03:51:57;;;;;;;3.83;2.22;;;12.60;99.90;;;;;;4948810;28;20224;-89
2021/06/16 03:54:24;;;;;;;2.25;1.80;;;12.70;99.90;;;;;;4962586;28;20653;-92
2021/06/16 03:56:51;;;;;;;3.70;1.80;;;12.70;99.90;;;;;;4948808;28;20239;-92
2021/06/16 03:59:20;;;;;;;5.53;1.85;;;12.80;99.90;;;;;;4961128;28;20219;-91
2021/06/16 04:01:46;;;;;;;6.35;2.40;;;12.90;99.90;;;;;;4945190;28;20315;-91
2021/06/16 04:04:12;;;;;;;5.55;2.05;;;13.00;99.90;;;;;;4955826;28;20204;-90
2021/06/16 04:06:43;;;;;;;5.57;2.33;;;13.00;99.90;;;;;;4948876;28;20328;-92
2021/06/16 04:09:11;;;;;;;3.78;1.58;;;13.10;99.90;;;;;;4960987;28;20212;-89
2021/06/16 04:11:37;;;;;;;4.38;2.15;;;13.20;99.90;;;;;;4951279;28;20227;-91
2021/06/16 04:14:04;;;;;;;6.13;1.90;;;13.20;99.90;;;;;;4959213;28;20196;-91
2021/06/16 04:16:31;;;;;;;2.95;1.80;;;13.20;99.90;;;;;;4968075;28;20188;-92
2021/06/16 04:18:57;;;;;;;2.97;1.58;;;13.30;99.90;;;;;;4979778;28;20255;-91
2021/06/16 04:21:23;;;;;;;3.45;2.00;;;13.30;99.90;;;;;;4970357;28;20892;-91
2021/06/16 04:23:50;;;;;;;5.20;2.00;;;13.40;99.90;;;;;;4988527;28;20184;-91
2021/06/16 04:26:17;;;;;;;3.83;2.20;;;13.40;99.90;;;;;;4981998;28;20644;-90
2021/06/16 04:28:43;;;;;;;3.88;1.90;;;13.40;99.90;;;;;;4988107;28;20257;-92
2021/06/16 04:31:10;;;;;;;4.15;1.88;;;13.50;99.90;;;;;;4988479;28;20223;-90
2021/06/16 04:33:36;;;;;;;2.72;1.63;;;13.50;99.90;;;;;;4981864;28;20227;-92
2021/06/16 04:36:03;;;;;;;3.63;2.10;;;13.70;99.90;;;;;;4992331;28;20191;-92
2021/06/16 04:38:29;;;;;;;3.75;2.00;;;13.80;99.90;;;;;;4972418;28;20235;-91
2021/06/16 04:40:55;;;;;;;5.78;1.88;;;13.90;99.90;;;;;;4988377;28;20191;-90
2021/06/16 04:43:23;;;;;;;4.65;1.67;;;14.10;99.90;;;;;;4960281;28;20242;-92
2021/06/16 04:45:49;;;;;;;2.88;1.80;;;14.30;99.90;;;;;;4969962;28;20188;-91
2021/06/16 04:48:15;;;;;;;3.80;1.88;;;14.50;99.90;;;;;;4977952;28;20226;-89
2021/06/16 04:50:41;;;;;;;5.40;1.77;;;14.60;99.90;;;;;;4991249;28;20336;-93
2021/06/16 04:53:07;;;;;;;5.93;2.15;;;14.80;99.90;;;;;;4989347;28;20229;-91
2021/06/16 04:55:32;;;;;;;4.32;1.75;;;14.90;99.90;;;;;;4989072;28;20198;-89
2021/06/16 04:57:58;;;;;;;3.38;1.60;;;15.00;99.90;;;;;;4997400;28;20254;-90
2021/06/16 05:00:24;;;;;;;3.35;1.63;;;15.00;99.90;;;;;;4990852;28;20210;-88
2021/06/16 05:02:57;;;;;;;8.43;2.33;;;15.10;99.90;;;;;;4981938;28;20494;-91
2021/06/16 05:05:23;;;;;;;4.40;2.17;;;15.20;99.90;;;;;;5005785;28;20187;-92
2021/06/16 05:07:49;;;;;;;6.40;2.00;;;15.20;99.90;;;;;;4980473;28;20601;-93
2021/06/16 05:10:15;;;;;;;7.53;2.30;;;15.30;99.90;;;;;;4982581;28;20210;-91
2021/06/16 05:12:44;;;;;;;3.08;1.70;;;15.30;99.90;;;;;;4987818;28;20736;-89
2021/06/16 05:15:12;;;;;;;3.85;1.98;;;15.30;99.90;;;;;;4992020;28;20223;-88
2021/06/16 05:17:39;;;;;;;9.38;2.47;;;15.30;99.90;;;;;;4977592;28;20224;-91
2021/06/16 05:20:09;;;;;;;5.93;2.10;;;15.40;99.90;;;;;;4976191;28;20212;-91
2021/06/16 05:22:35;;;;;;;3.67;1.80;;;15.50;99.90;;;;;;4970315;28;20703;-90
2021/06/16 05:25:04;;;;;;;5.75;2.22;;;15.50;99.90;;;;;;4986176;28;20183;-89
2021/06/16 05:27:30;;;;;;;7.70;2.30;;;15.50;99.90;;;;;;5002344;28;20238;-89
2021/06/16 05:29:56;;;;;;;4.40;1.98;;;15.70;99.90;;;;;;4990526;28;20767;-92
2021/06/16 05:32:22;;;;;;;5.75;2.28;;;15.80;99.90;;;;;;4982427;28;20243;-88
2021/06/16 05:34:48;;;;;;;7.93;2.83;;;15.80;99.90;;;;;;4991151;28;20225;-90
2021/06/16 05:37:14;;;;;;;4.55;2.38;;;15.90;99.90;;;;;;4978786;28;20504;-90
2021/06/16 05:39:40;;;;;;;5.70;2.50;;;15.90;99.90;;;;;;4979016;28;20261;-91
2021/06/16 05:42:06;;;;;;;4.55;2.20;;;16.00;99.90;;;;;;4997802;28;20191;-89
2021/06/16 05:44:37;;;;;;;6.97;2.58;;;16.10;99.90;;;;;;5005754;28;20191;-89
2021/06/16 05:47:04;;;;;;;6.82;2.00;;;16.10;99.90;;;;;;4980519;28;20187;-91
2021/06/16 05:49:30;;;;;;;6.20;2.40;;;16.20;99.90;;;;;;4992735;28;20203;-91
2021/06/16 05:51:55;;;;;;;4.57;2.45;;;16.20;99.90;;;;;;4990635;28;20798;-89
2021/06/16 05:54:21;;;;;;;7.25;2.17;;;16.10;99.90;;;;;;4981368;28;20234;-90
2021/06/16 05:56:47;;;;;;;4.32;2.38;;;16.20;99.90;;;;;;4996806;28;20623;-91
2021/06/16 05:59:13;;;;;;;7.40;2.75;;;16.20;99.90;;;;;;4981250;28;20230;-89
2021/06/16 06:01:39;;;;;;;6.05;2.40;;;16.30;99.90;;;;;;4989918;28;20195;-90
2021/06/16 06:04:08;;;;;;;6.03;2.63;;;16.30;99.90;;;;;;4963846;28;20348;-88
2021/06/16 06:06:37;;;;;;;5.13;2.45;;;16.40;99.90;;;;;;4990134;28;20237;-89
2021/06/16 06:09:05;;;;;;;6.47;2.63;;;16.40;99.90;;;;;;4995884;28;20226;-92
2021/06/16 06:11:30;;;;;;;3.90;2.22;;;16.40;99.90;;;;;;5005915;28;20215;-92
2021/06/16 06:13:56;;;;;;;5.95;2.15;;;16.40;99.90;;;;;;5000103;28;20234;-91
2021/06/16 06:16:22;;;;;;;5.00;2.25;;;16.60;99.90;;;;;;5008003;28;20641;-89
2021/06/16 06:18:48;;;;;;;4.85;2.08;;;16.70;99.90;;;;;;5002964;28;20574;-91
2021/06/16 06:21:14;;;;;;;4.38;2.15;;;16.70;99.90;;;;;;5025117;28;20427;-92
2021/06/16 06:23:40;;;;;;;4.25;2.10;;;16.80;99.90;;;;;;5021425;28;20232;-92
2021/06/16 06:26:06;;;;;;;6.22;2.70;;;17.00;99.90;;;;;;5030931;28;20183;-91
2021/06/16 06:28:32;;;;;;;7.18;2.58;;;17.00;99.90;;;;;;5004149;28;20230;-88
2021/06/16 06:30:57;;;;;;;7.43;2.22;;;17.10;99.90;;;;;;5017713;28;20215;-91
2021/06/16 06:33:23;;;;;;;4.90;2.38;;;17.10;99.90;;;;;;5010602;28;20245;-88
2021/06/16 06:35:49;;;;;;;6.90;2.90;;;17.20;99.90;;;;;;5016912;28;20254;-91
2021/06/16 06:38:15;;;;;;;7.43;2.90;;;17.40;99.90;;;;;;5004092;28;20829;-90
2021/06/16 06:40:41;;;;;;;4.68;2.17;;;17.50;99.90;;;;;;5030949;28;20229;-93
2021/06/16 06:43:08;;;;;;;4.93;2.03;;;17.60;99.90;;;;;;5004296;28;20728;-94
2021/06/16 06:45:34;;;;;;;4.88;2.63;;;17.80;99.90;;;;;;5017029;28;20183;-93
2021/06/16 06:48:00;;;;;;;5.75;2.50;;;18.00;99.90;;;;;;5003653;28;20233;-88
2021/06/16 06:50:26;;;;;;;5.97;2.50;;;18.20;99.90;;;;;;5013890;28;20285;-91
2021/06/16 06:52:52;;;;;;;8.60;3.03;;;18.40;99.90;;;;;;5003392;28;20318;-91
2021/06/16 06:55:18;;;;;;;6.68;2.58;;;18.60;99.90;;;;;;5033912;28;20221;-91
2021/06/16 06:57:45;;;;;;;6.75;2.90;;;18.80;99.90;;;;;;5004138;28;20219;-90
2021/06/16 07:00:13;;;;;;;4.05;2.30;;;18.90;99.90;;;;;;5019115;28;20207;-90
2021/06/16 07:02:39;;;;;;;8.10;3.13;;;19.10;99.90;;;;;;5003117;28;20231;-90
2021/06/16 07:05:07;;;;;;;7.40;2.47;;;19.20;99.90;;;;;;5013159;28;20194;-92
2021/06/16 07:07:32;;;;;;;6.10;2.75;;;19.30;99.90;;;;;;5002548;28;20191;-89
2021/06/16 07:09:58;;;;;;;6.47;2.60;;;19.50;99.90;;;;;;5035212;28;20214;-90
2021/06/16 07:12:24;;;;;;;11.65;3.08;;;19.60;99.90;;;;;;5002454;28;20701;-91
2021/06/16 07:14:52;;;;;;;10.15;3.13;;;19.80;99.90;;;;;;5016013;28;20178;-89
2021/06/16 07:17:18;;;;;;;8.75;2.80;;;19.90;99.90;;;;;;5012290;28;20194;-90
2021/06/16 07:19:44;;;;;;;6.82;2.95;;;20.00;99.90;;;;;;5003591;28;20238;-91
2021/06/16 07:22:10;;;;;;;8.82;2.85;;;20.20;99.90;;;;;;5009298;28;20235;-90
2021/06/16 07:24:36;;;;;;;7.55;2.88;;;20.30;99.90;;;;;;5001200;28;20253;-92
2021/06/16 07:27:02;;;;;;;7.53;2.90;;;20.40;99.90;;;;;;5010287;28;20191;-91
2021/06/16 07:29:28;;;;;;;10.55;3.20;;;20.60;99.90;;;;;;5001251;28;20230;-90
2021/06/16 07:31:54;;;;;;;7.72;2.90;;;20.60;99.90;;;;;;5007435;28;20561;-89
2021/06/16 07:34:19;;;;;;;5.70;3.00;;;20.50;99.90;;;;;;5002725;28;20233;-91
2021/06/16 07:36:46;;;;;;;5.28;2.45;;;20.70;99.90;;;;;;5008463;28;20223;-89
2021/06/16 07:39:11;;;;;;;6.38;2.95;;;20.90;99.90;;;;;;5002024;28;20222;-91
2021/06/16 07:41:37;;;;;;;4.07;2.60;;;21.10;99.90;;;;;;5008856;28;20183;-90
2021/06/16 07:44:03;;;;;;;9.02;3.33;;;21.20;99.90;;;;;;5002609;28;20245;-90
2021/06/16 07:46:29;;;;;;;10.30;3.28;;;21.30;99.90;;;;;;5007842;28;20664;-89
2021/06/16 07:48:55;;;;;;;8.98;3.70;;;21.40;99.90;;;;;;5004856;28;20238;-92
2021/06/16 07:51:20;;;;;;;8.43;3.30;;;21.50;99.90;;;;;;5006836;28;20619;-91
2021/06/16 07:53:47;;;;;;;7.68;3.35;;;21.60;99.90;;;;;;5002099;28;20227;-92
2021/06/16 07:56:13;;;;;;;11.93;3.72;;;21.70;99.90;;;;;;5007859;28;20179;-92
2021/06/16 07:58:39;;;;;;;8.07;2.88;;;21.60;99.90;;;;;;4997999;28;20765;-91
2021/06/16 08:01:05;;;;;;;5.97;3.30;;;21.80;99.90;;;;;;5016396;28;20187;-91
2021/06/16 08:03:32;;;;;;;11.75;3.75;;;21.90;99.90;;;;;;5001999;28;20230;-91
2021/06/16 08:05:57;;;;;;;7.20;3.45;;;22.20;99.90;;;;;;5009453;28;20294;-90
2021/06/16 08:08:23;;;;;;;12.05;3.55;;;22.30;99.90;;;;;;5002126;28;20395;-89
2021/06/16 08:10:50;;;;;;;7.93;3.75;;;22.50;99.90;;;;;;5008913;28;20281;-91
2021/06/16 08:13:17;;;;;;;9.40;3.20;;;22.50;99.90;;;;;;5002150;28;20253;-90
2021/06/16 08:15:43;;;;;;;9.30;3.85;;;22.50;99.90;;;;;;5007420;28;20671;-90
2021/06/16 08:18:09;;;;;;;11.02;4.20;;;22.70;99.90;;;;;;5000400;28;20214;-90
2021/06/16 08:20:36;;;;;;;8.32;3.90;;;22.80;99.90;;;;;;5007050;28;20257;-89
2021/06/16 08:23:03;;;;;;;6.85;3.75;;;23.00;99.90;;;;;;5000172;28;20238;-90
2021/06/16 08:25:29;;;;;;;5.60;3.88;;;23.00;99.80;;;;;;5007992;28;20194;-90
2021/06/16 08:27:55;;;;;;;6.97;3.67;;;23.10;99.80;;;;;;5000359;28;20249;-89
2021/06/16 08:30:21;;;;;;;9.30;4.90;;;23.20;99.40;;;;;;5022135;28;20583;-89
2021/06/16 08:32:48;;;;;;;6.47;4.57;;;23.30;99.60;;;;;;4999394;28;20279;-89
2021/06/16 08:35:14;;;;;;;8.80;4.03;;;23.30;99.30;;;;;;5006721;28;20672;-90
2021/06/16 08:37:41;;;;;;;9.45;4.50;;;23.40;99.90;;;;;;4997970;28;20191;-90
2021/06/16 08:40:09;;;;;;;6.72;4.50;;;23.50;99.80;;;;;;5007574;28;20211;-89
2021/06/16 08:42:36;;;;;;;9.52;4.47;;;23.60;99.40;;;;;;5006404;28;20687;-90
2021/06/16 08:45:02;;;;;;;9.35;4.53;;;23.70;99.60;;;;;;4997930;28;20277;-89
2021/06/16 08:47:29;;;;;;;6.05;4.47;;;23.80;99.50;;;;;;5007009;28;20187;-89
2021/06/16 08:49:55;;;;;;;10.70;4.32;;;23.90;99.90;;;;;;4997200;28;20221;-90
2021/06/16 08:52:21;;;;;;;6.68;4.35;;;24.00;99.80;;;;;;5007928;28;20198;-90
2021/06/16 08:54:47;;;;;;;10.02;5.75;;;24.10;99.90;;;;;;4999634;28;20228;-90
2021/06/16 08:57:13;;;;;;;7.72;4.40;;;24.00;98.40;;;;;;5007309;28;20191;-91
2021/06/16 08:59:39;;;;;;;9.95;4.82;;;24.10;99.30;;;;;;4999975;28;20234;-89
2021/06/16 09:02:05;;;;;;;8.88;4.40;;;24.20;99.90;;;;;;5005217;28;20202;-91
2021/06/16 09:04:43;;;;;;;7.22;4.55;;;24.40;99.80;;;;;;5000424;28;20715;-89
2021/06/16 09:07:24;;;;;;;8.30;5.38;;;24.50;99.10;;;;;;5005720;28;20257;-90
2021/06/16 09:10:04;;;;;;;9.00;5.10;;;24.60;98.20;;;;;;5000015;28;20233;-89
2021/06/16 09:12:31;;;;;;;9.18;5.53;;;24.70;98.80;;;;;;5001804;28;20191;-90
2021/06/16 09:14:57;;;;;;;7.28;5.28;;;24.80;98.30;;;;;;4998555;28;20230;-89
2021/06/16 09:17:24;;;;;;;11.63;6.20;;;24.80;98.30;;;;;;5006962;28;20666;-89
2021/06/16 09:19:56;;;;;;;8.90;5.45;;;24.80;97.70;;;;;;5000097;28;20264;-90
2021/06/16 09:22:35;;;;;;;9.75;5.88;;;24.80;97.80;;;;;;5010908;28;20222;-88
2021/06/16 09:25:06;;;;;;;6.97;5.07;;;24.90;98.10;;;;;;5010294;28;20217;-88
2021/06/16 09:27:41;;;;;;;8.70;5.70;;;25.00;98.40;;;;;;5014046;28;20281;-90
2021/06/16 09:30:20;;;;;;;9.35;5.63;;;25.10;97.70;;;;;;4996739;28;20230;-91
2021/06/16 09:32:58;;;;;;;8.10;5.80;;;25.20;98.40;;;;;;5005265;28;20277;-87
2021/06/16 09:35:37;;;;;;;8.30;5.60;;;25.20;97.50;;;;;;4981744;28;20229;-90
2021/06/16 09:38:09;;;;;;;10.95;6.38;;;25.40;97.90;;;;;;4994844;28;20261;-90
2021/06/16 09:40:42;;;;;;;8.23;6.47;;;25.50;97.40;;;;;;5010686;28;20576;-90
2021/06/16 09:43:11;;;;;;;7.70;6.30;;;25.60;97.50;;;;;;5000278;28;20244;-88
2021/06/16 09:45:38;;;;;;;12.02;6.90;;;25.60;97.30;;;;;;5003717;28;20210;-88
2021/06/16 09:48:28;;;;;;;10.80;6.88;;;25.70;97.70;;;;;;4999435;28;20187;-88
2021/06/16 09:51:20;;;;;;;8.73;6.72;;;25.70;96.70;;;;;;5009171;28;20206;-90
2021/06/16 09:53:57;;;;;;;10.00;6.93;;;25.70;97.60;;;;;;5003034;28;20257;-89
2021/06/16 09:56:32;;;;;;;8.38;6.72;;;25.70;96.70;;;;;;5012068;28;20195;-89
2021/06/16 09:58:59;;;;;;;9.23;7.35;;;25.70;97.00;;;;;;5005808;28;20229;-90
2021/06/16 10:01:46;;;;;;;17.40;6.82;;;25.70;96.30;;;;;;5012068;28;20251;-91
2021/06/16 10:04:39;;;;;;;8.85;6.35;;;26.00;97.40;;;;;;5002810;28;20415;-88
2021/06/16 10:07:16;;;;;;;9.75;5.90;;;26.10;97.20;;;;;;5013965;28;20196;-89
2021/06/16 10:09:53;;;;;;;7.10;6.30;;;26.30;96.60;;;;;;5004128;28;20342;-90
2021/06/16 10:12:25;;;;;;;13.05;7.30;;;26.40;96.40;;;;;;5013532;28;20644;-89
2021/06/16 10:14:51;;;;;;;11.27;7.20;;;26.40;96.70;;;;;;5017437;28;20225;-91
2021/06/16 10:17:17;;;;;;;10.80;7.35;;;26.60;97.20;;;;;;5020379;28;20426;-88
2021/06/16 10:19:45;;;;;;;10.85;7.55;;;26.70;96.70;;;;;;5006605;28;20230;-89
2021/06/16 10:22:14;;;;;;;10.02;7.28;;;26.70;96.60;;;;;;5011562;28;20227;-89
2021/06/16 10:24:40;;;;;;;8.48;7.00;;;26.80;95.90;;;;;;5004526;28;20225;-89
2021/06/16 10:27:18;;;;;;;11.15;7.57;;;26.80;96.60;;;;;;5010428;28;20195;-89
2021/06/16 10:29:46;;;;;;;12.73;7.30;;;26.70;95.20;;;;;;5003772;28;20261;-89
2021/06/16 10:32:13;;;;;;;10.35;7.90;;;26.50;96.30;;;;;;5015276;28;20481;-91
2021/06/16 10:34:51;;;;;;;12.25;8.00;;;26.40;96.10;;;;;;5000675;28;20802;-89
2021/06/16 10:37:31;;;;;;;12.88;7.97;;;26.40;96.30;;;;;;5006786;28;20198;-88
2021/06/16 10:40:18;;;;;;;13.65;8.38;;;26.40;97.30;;;;;;5014219;28;20348;-90
2021/06/16 10:42:59;;;;;;;13.68;8.25;;;26.50;97.10;;;;;;5026218;28;20606;-87
2021/06/16 10:46:08;;;;;;;10.15;7.28;;;26.70;97.00;;;;;;5000807;28;20237;-89
2021/06/16 10:48:54;;;;;;;8.25;7.10;;;26.80;97.10;;;;;;5000594;28;20227;-88
2021/06/16 10:51:35;;;;;;;13.50;8.75;;;26.80;96.40;;;;;;5008002;28;20588;-88
2021/06/16 10:54:14;;;;;;;13.48;8.43;;;26.90;95.90;;;;;;4998234;28;20225;-90
2021/06/16 10:56:42;;;;;;;15.82;9.88;;;27.00;96.80;;;;;;5009850;28;20189;-89
2021/06/16 10:59:08;;;;;;;11.30;8.23;;;27.00;95.80;;;;;;5002876;28;20565;-91
2021/06/16 11:01:49;;;;;;;8.80;7.45;;;27.10;96.40;;;;;;5010136;28;20202;-87
2021/06/16 11:04:27;;;;;;;12.50;8.30;;;27.20;96.40;;;;;;5001604;28;20230;-90
2021/06/16 11:06:52;;;;;;;12.10;7.95;;;27.20;96.30;;;;;;5007206;28;20195;-89
2021/06/16 11:09:52;;;;;;;10.30;8.20;;;27.20;95.90;;;;;;5007884;28;20241;-88
2021/06/16 11:12:40;;;;;;;16.23;9.55;;;27.20;97.10;;;;;;5005811;28;20191;-90
2021/06/16 11:15:10;;;;;;;11.07;9.70;;;27.30;96.50;;;;;;5003335;28;20229;-90
2021/06/16 11:17:36;;;;;;;20.25;8.90;;;27.30;96.50;;;;;;5009716;28;20187;-89
2021/06/16 11:20:06;;;;;;;14.93;9.23;;;27.20;97.30;;;;;;5002408;28;20740;-89
2021/06/16 11:22:37;;;;;;;12.85;9.20;;;26.90;96.50;;;;;;5011265;28;20232;-90
2021/06/16 11:25:05;;;;;;;15.07;9.05;;;26.80;96.40;;;;;;5002832;28;20240;-90
2021/06/16 11:28:09;;;;;;;15.18;9.80;;;26.60;97.10;;;;;;5007994;28;20772;-88
2021/06/16 11:30:55;;;;;;;14.90;9.68;;;26.40;97.00;;;;;;5001068;28;20234;-88
2021/06/16 11:33:21;;;;;;;12.45;9.35;;;26.20;97.30;;;;;;5007776;28;20183;-89
2021/06/16 11:35:55;;;;;;;11.60;8.93;;;26.10;97.70;;;;;;5014706;28;20334;-89
2021/06/16 11:38:21;;;;;;;14.55;9.25;;;26.30;98.00;;;;;;5009088;28;20221;-90
2021/06/16 11:40:56;;;;;;;15.20;8.60;;;26.50;98.00;;;;;;5000260;28;20685;-89
2021/06/16 11:43:37;;;;;;;12.68;8.63;;;26.50;97.10;;;;;;5009059;28;20186;-90
2021/06/16 11:46:28;;;;;;;13.55;8.80;;;26.30;97.20;;;;;;4982859;28;20823;-88
2021/06/16 11:49:20;;;;;;;9.98;7.50;;;26.40;97.40;;;;;;5001355;28;20309;-88
2021/06/16 11:51:50;;;;;;;12.75;8.60;;;26.30;98.50;;;;;;5009495;28;20210;-89
2021/06/16 11:54:22;;;;;;;14.13;7.80;;;26.60;97.30;;;;;;5003041;28;20268;-89
2021/06/16 11:56:54;;;;;;;11.38;8.13;;;26.70;97.50;;;;;;5009716;28;20187;-88
2021/06/16 11:59:52;;;;;;;11.43;8.20;;;26.60;97.20;;;;;;5008007;28;20214;-87
2021/06/16 12:02:23;;;;;;;26.45;9.00;;;26.50;96.90;;;;;;5009814;28;20187;-89
2021/06/16 12:05:07;;;;;;;9.38;7.20;;;26.40;96.70;;;;;;5003632;28;20233;-90
2021/06/16 12:07:44;;;;;;;13.80;7.47;;;26.50;97.50;;;;;;5009338;28;20202;-88
2021/06/16 12:10:15;;;;;;;10.55;7.93;;;26.60;96.70;;;;;;4999273;28;20629;-88
2021/06/16 12:12:56;;;;;;;8.40;6.85;;;26.80;96.60;;;;;;5009124;28;20273;-91
2021/06/16 12:15:25;;;;;;;12.05;8.32;;;27.10;97.30;;;;;;5000681;28;20228;-91
2021/06/16 12:17:54;;;;;;;14.65;7.57;;;27.20;96.70;;;;;;5009176;28;20217;-88
2021/06/16 12:20:20;;;;;;;10.50;7.10;;;27.30;96.00;;;;;;4998804;28;20238;-90
2021/06/16 12:22:45;;;;;;;18.88;7.95;;;27.20;95.90;;;;;;5026917;28;20230;-87
2021/06/16 12:25:23;;;;;;;8.25;7.22;;;27.20;95.30;;;;;;5028991;28;20255;-88
2021/06/16 12:27:50;;;;;;;12.77;7.68;;;27.30;95.80;;;;;;5012067;28;20201;-90
2021/06/16 12:30:22;;;;;;;10.93;7.55;;;27.30;95.90;;;;;;5005260;28;20302;-90
2021/06/16 12:33:20;;;;;;;12.93;7.55;;;27.20;95.70;;;;;;5015172;28;20558;-88
2021/06/16 12:36:17;;;;;;;10.38;6.93;;;27.20;96.20;;;;;;5007226;28;20711;-88
2021/06/16 12:38:48;;;;;;;9.00;7.25;;;27.30;96.60;;;;;;4999635;28;20186;-91
2021/06/16 12:41:35;;;;;;;11.50;7.18;;;27.40;96.70;;;;;;5013457;28;20194;-93
2021/06/16 12:44:14;;;;;;;9.65;7.70;;;27.50;95.80;;;;;;5002756;28;20668;-90
2021/06/16 12:46:59;;;;;;;9.10;6.78;;;27.60;96.00;;;;;;5017445;28;20194;-91
2021/06/16 12:49:35;;;;;;;10.10;7.28;;;27.70;96.50;;;;;;5001865;28;20253;-90
2021/06/16 12:52:04;;;;;;;8.40;7.35;;;27.70;96.30;;;;;;5015738;28;20190;-89
2021/06/16 12:54:43;;;;;;;9.45;7.28;;;27.50;95.60;;;;;;5003719;28;20605;-88
2021/06/16 12:57:11;;;;;;;12.10;7.28;;;27.40;96.50;;;;;;5010006;28;20243;-91
2021/06/16 12:59:55;;;;;;;12.45;7.25;;;27.50;96.50;;;;;;5004853;28;20779;-90
2021/06/16 13:02:25;;;;;;;9.20;7.22;;;27.60;96.00;;;;;;5014051;28;20222;-90